createdAt,value
2023-10-20T00:02:05.653Z,4.35
2023-10-20T00:04:34.819Z,3.50
2023-10-20T00:07:04.072Z,5.00
2023-10-20T00:09:32.309Z,4.75
2023-10-20T00:12:00.212Z,4.72
2023-10-20T00:14:27.979Z,4.20
2023-10-20T00:16:55.854Z,3.63
2023-10-20T00:19:23.888Z,3.78
2023-10-20T00:21:53.304Z,3.33
2023-10-20T00:24:22.577Z,3.92
2023-10-20T00:26:50.935Z,3.85
2023-10-20T00:29:19.597Z,5.65
2023-10-20T00:31:47.436Z,2.80
2023-10-20T00:34:14.961Z,1.98
2023-10-20T00:36:42.473Z,2.30
2023-10-20T00:39:10.623Z,2.40
2023-10-20T00:41:38.908Z,2.58
2023-10-20T00:44:06.544Z,3.17
2023-10-20T00:46:35.358Z,2.88
2023-10-20T00:49:03.995Z,2.80
2023-10-20T00:51:32.360Z,2.97
2023-10-20T00:54:01.528Z,3.40
2023-10-20T00:56:31.140Z,3.47
2023-10-20T00:58:59.744Z,3.97
2023-10-20T01:01:27.599Z,3.20
2023-10-20T01:03:55.674Z,5.47
2023-10-20T01:06:23.669Z,4.03
2023-10-20T01:08:56.812Z,4.15
2023-10-20T01:11:24.956Z,5.72
2023-10-20T01:13:52.894Z,5.30
2023-10-20T01:16:21.437Z,6.15
2023-10-20T01:18:49.123Z,6.78
2023-10-20T01:21:16.964Z,8.57
2023-10-20T01:23:45.543Z,8.32
2023-10-20T01:26:13.381Z,11.02
2023-10-20T01:28:41.186Z,7.68
2023-10-20T01:31:08.731Z,8.77
2023-10-20T01:33:36.377Z,7.30
2023-10-20T01:36:04.161Z,7.03
2023-10-20T01:38:31.719Z,8.95
2023-10-20T01:40:59.466Z,8.68
2023-10-20T01:43:27.174Z,7.70
2023-10-20T01:45:54.995Z,8.48
2023-10-20T01:48:23.681Z,7.35
2023-10-20T01:50:51.341Z,6.25
2023-10-20T01:53:19.187Z,6.97
2023-10-20T01:55:50.894Z,7.07
2023-10-20T01:58:20.096Z,6.18
2023-10-20T02:00:52.095Z,6.82
2023-10-20T02:03:21.033Z,10.35
2023-10-20T02:05:49.074Z,10.75
2023-10-20T02:08:16.962Z,12.50
2023-10-20T02:10:46.106Z,11.98
2023-10-20T02:13:13.771Z,14.02
2023-10-20T02:15:49.684Z,13.57
2023-10-20T02:18:18.399Z,14.32
2023-10-20T02:21:05.261Z,13.00
2023-10-20T02:23:33.816Z,15.05
2023-10-20T02:26:04.028Z,14.73
2023-10-20T02:28:31.782Z,18.05
2023-10-20T02:31:01.741Z,16.02
2023-10-20T02:33:29.575Z,15.67
2023-10-20T02:35:57.256Z,14.20
2023-10-20T02:38:25.249Z,12.48
2023-10-20T02:40:54.516Z,13.45
2023-10-20T02:43:25.648Z,13.07
2023-10-20T02:48:25.312Z,4.90
2023-10-20T02:50:53.007Z,1.50
2023-10-20T02:53:20.895Z,0.50
2023-10-20T02:55:50.827Z,0.68
2023-10-20T02:58:18.840Z,0.40
2023-10-20T03:00:51.291Z,0.30
2023-10-20T03:03:19.355Z,0.50
2023-10-20T03:05:47.397Z,0.30
2023-10-20T03:08:15.114Z,0.50
2023-10-20T03:10:44.238Z,0.63
2023-10-20T03:13:11.850Z,0.70
2023-10-20T03:15:39.566Z,0.40
2023-10-20T03:18:07.522Z,0.30
2023-10-20T03:20:37.715Z,0.30
2023-10-20T03:23:10.463Z,0.30
2023-10-20T03:25:44.149Z,0.32
2023-10-20T03:28:12.388Z,0.50
2023-10-20T03:30:44.417Z,0.30
2023-10-20T03:33:14.370Z,0.40
2023-10-20T03:35:42.335Z,0.20
2023-10-20T03:38:10.855Z,0.38
2023-10-20T03:40:47.374Z,0.50
2023-10-20T03:43:14.912Z,0.38
2023-10-20T03:45:49.920Z,0.38
2023-10-20T03:48:18.047Z,0.40
2023-10-20T03:50:47.750Z,0.57
2023-10-20T03:53:28.276Z,0.60
2023-10-20T03:56:00.594Z,0.57
2023-10-20T03:58:30.454Z,0.50
2023-10-20T04:00:59.763Z,1.38
2023-10-20T04:03:27.420Z,0.70
2023-10-20T04:05:55.399Z,0.70
2023-10-20T04:08:24.757Z,1.02
2023-10-20T04:10:59.241Z,1.10
2023-10-20T04:13:27.108Z,1.30
2023-10-20T04:15:55.126Z,1.20
2023-10-20T04:18:25.999Z,1.55
2023-10-20T04:20:58.960Z,2.05
2023-10-20T04:23:27.548Z,1.90
2023-10-20T04:25:56.380Z,2.90
2023-10-20T04:28:39.782Z,2.85
2023-10-20T04:31:26.352Z,2.75
2023-10-20T04:34:14.715Z,2.53
2023-10-20T04:37:01.236Z,2.90
2023-10-20T04:40:07.808Z,3.25
2023-10-20T04:42:35.761Z,4.03
2023-10-20T04:45:22.599Z,4.20
2023-10-20T04:48:08.828Z,5.00
2023-10-20T04:50:56.647Z,4.88
2023-10-20T04:53:42.839Z,5.07
2023-10-20T04:56:17.536Z,5.05
2023-10-20T04:59:00.710Z,4.88
2023-10-20T05:01:31.624Z,5.35
2023-10-20T05:03:59.702Z,5.00
2023-10-20T05:06:27.859Z,4.97
2023-10-20T05:08:55.697Z,4.90
2023-10-20T05:11:23.513Z,4.53
2023-10-20T05:13:51.440Z,3.42
2023-10-20T05:16:23.023Z,3.80
2023-10-20T05:18:51.862Z,3.65
2023-10-20T05:21:19.719Z,4.32
2023-10-20T05:23:47.779Z,3.78
2023-10-20T05:26:16.054Z,3.42
2023-10-20T05:28:43.747Z,2.88
2023-10-20T05:31:11.373Z,2.70
2023-10-20T05:33:38.963Z,2.47
2023-10-20T05:36:06.850Z,2.08
2023-10-20T05:38:34.592Z,2.40
2023-10-20T05:41:02.390Z,2.10
2023-10-20T05:43:31.426Z,2.03
2023-10-20T05:45:59.237Z,1.50
2023-10-20T05:48:27.022Z,1.65
2023-10-20T05:50:58.991Z,1.52
2023-10-20T05:53:26.928Z,1.00
2023-10-20T05:55:54.560Z,1.02
2023-10-20T05:58:23.430Z,1.00
2023-10-20T06:01:07.181Z,1.15
2023-10-20T06:03:34.879Z,1.42
2023-10-20T06:06:04.773Z,1.10
2023-10-20T06:08:32.499Z,1.45
2023-10-20T06:11:04.817Z,0.90
2023-10-20T06:13:35.781Z,0.90
2023-10-20T06:18:36.493Z,1.05
2023-10-20T06:21:11.633Z,0.90
2023-10-20T06:23:39.344Z,0.95
2023-10-20T06:26:07.364Z,0.77
2023-10-20T06:28:35.208Z,0.90
2023-10-20T06:31:17.446Z,1.98
2023-10-20T06:33:45.744Z,1.25
2023-10-20T06:36:19.988Z,0.80
2023-10-20T06:38:47.448Z,0.90
2023-10-20T06:41:15.038Z,0.82
2023-10-20T06:43:42.620Z,0.90
2023-10-20T06:46:10.944Z,0.60
2023-10-20T06:48:38.654Z,0.70
2023-10-20T06:51:06.177Z,0.70
2023-10-20T06:53:33.694Z,0.60
2023-10-20T06:56:14.578Z,1.08
2023-10-20T06:58:43.410Z,0.82
2023-10-20T07:01:10.937Z,0.70
2023-10-20T07:03:38.577Z,0.60
2023-10-20T07:06:10.400Z,0.70
2023-10-20T07:08:38.802Z,1.33
2023-10-20T07:11:06.700Z,0.68
2023-10-20T07:13:34.867Z,0.70
2023-10-20T07:16:02.493Z,0.65
2023-10-20T07:18:30.110Z,0.60
2023-10-20T07:23:45.804Z,0.85
2023-10-20T07:26:18.823Z,0.77
2023-10-20T07:28:47.049Z,0.60
2023-10-20T07:31:16.546Z,0.65
2023-10-20T07:33:44.340Z,0.55
2023-10-20T07:36:12.082Z,0.60
2023-10-20T07:38:40.160Z,0.47
2023-10-20T07:41:10.862Z,0.43
2023-10-20T07:43:40.121Z,0.75
2023-10-20T07:46:07.899Z,1.20
2023-10-20T07:48:36.590Z,0.85
2023-10-20T07:51:04.745Z,0.85
2023-10-20T07:53:32.351Z,0.77
2023-10-20T07:56:00.169Z,0.60
2023-10-20T07:58:28.807Z,0.60
2023-10-20T08:00:56.551Z,0.40
2023-10-20T08:03:24.688Z,0.60
2023-10-20T08:05:52.714Z,0.70
2023-10-20T08:08:20.568Z,0.82
2023-10-20T08:10:49.044Z,0.82
2023-10-20T08:13:18.429Z,0.57
2023-10-20T08:15:46.033Z,0.80
2023-10-20T08:18:13.933Z,0.70
2023-10-20T08:20:42.064Z,1.30
2023-10-20T08:23:10.048Z,0.85
2023-10-20T08:25:39.298Z,1.00
2023-10-20T08:28:08.861Z,0.90
2023-10-20T08:30:36.676Z,1.45
2023-10-20T08:33:05.010Z,1.30
2023-10-20T08:35:32.774Z,1.90
2023-10-20T08:38:00.339Z,1.30
2023-10-20T08:40:41.815Z,1.70
2023-10-20T08:43:21.425Z,2.00
2023-10-20T08:45:49.218Z,1.80
2023-10-20T08:48:17.182Z,1.80
2023-10-20T08:50:47.457Z,2.22
2023-10-20T08:53:17.110Z,2.50
2023-10-20T08:55:45.652Z,3.30
2023-10-20T08:58:13.290Z,2.72
2023-10-20T09:00:51.339Z,2.53
2023-10-20T09:03:27.179Z,2.63
2023-10-20T09:06:07.173Z,2.75
2023-10-20T09:08:35.570Z,2.50
2023-10-20T09:11:06.934Z,2.55
2023-10-20T09:13:38.749Z,2.58
2023-10-20T09:16:09.002Z,2.90
2023-10-20T09:18:51.356Z,2.80
2023-10-20T09:21:29.806Z,2.78
2023-10-20T09:24:04.094Z,3.03
2023-10-20T09:26:34.191Z,3.30
2023-10-20T09:29:02.663Z,4.13
2023-10-20T09:31:30.258Z,4.28
2023-10-20T09:33:59.102Z,4.78
2023-10-20T09:36:31.180Z,4.53
2023-10-20T09:39:01.044Z,4.20
2023-10-20T09:41:31.044Z,3.85
2023-10-20T09:44:26.830Z,3.13
2023-10-20T09:47:07.512Z,3.50
2023-10-20T09:49:36.734Z,3.42
2023-10-20T09:52:06.191Z,3.28
2023-10-20T09:54:35.860Z,3.40
2023-10-20T09:57:07.172Z,3.65
2023-10-20T09:59:35.611Z,3.42
2023-10-20T10:02:03.403Z,3.15
2023-10-20T10:04:40.397Z,3.10
2023-10-20T10:07:10.066Z,3.20
2023-10-20T10:09:44.671Z,3.10
2023-10-20T10:12:16.632Z,3.00
2023-10-20T10:14:56.850Z,3.05
2023-10-20T10:17:27.761Z,2.88
2023-10-20T10:19:57.629Z,2.70
2023-10-20T10:22:30.503Z,3.00
2023-10-20T10:25:01.230Z,3.30
2023-10-20T10:27:30.769Z,2.78
2023-10-20T10:30:06.861Z,2.58
2023-10-20T10:32:46.370Z,2.78
2023-10-20T10:35:18.790Z,2.47
2023-10-20T10:37:46.679Z,2.83
2023-10-20T10:40:20.447Z,3.20
2023-10-20T10:42:53.162Z,2.42
2023-10-20T10:45:28.492Z,2.45
2023-10-20T10:48:19.331Z,2.50
2023-10-20T10:50:49.179Z,2.50
2023-10-20T10:53:17.111Z,2.42
2023-10-20T10:55:45.407Z,2.28
2023-10-20T10:58:15.616Z,2.35
2023-10-20T11:00:47.419Z,2.35
2023-10-20T11:03:15.757Z,2.20
2023-10-20T11:05:44.464Z,2.45
2023-10-20T11:08:15.614Z,2.28
2023-10-20T11:10:44.809Z,2.20
2023-10-20T11:13:14.629Z,1.80
2023-10-20T11:15:44.564Z,1.50
2023-10-20T11:18:12.780Z,1.60
2023-10-20T11:20:45.011Z,1.30
2023-10-20T11:23:13.986Z,1.65
2023-10-20T11:25:43.267Z,1.92
2023-10-20T11:28:11.071Z,2.20
2023-10-20T11:30:40.321Z,2.00
2023-10-20T11:33:14.216Z,1.83
2023-10-20T11:35:47.281Z,1.30
2023-10-20T11:38:18.246Z,1.45
2023-10-20T11:43:17.266Z,1.17
2023-10-20T11:45:44.845Z,1.00
2023-10-20T11:48:12.652Z,1.25
2023-10-20T11:50:41.111Z,0.90
2023-10-20T11:53:08.670Z,0.90
2023-10-20T11:55:36.581Z,0.95
2023-10-20T11:58:05.346Z,1.02
2023-10-20T12:00:33.267Z,0.65
2023-10-20T12:03:00.869Z,0.82
2023-10-20T12:05:28.448Z,0.70
2023-10-20T12:07:55.999Z,0.63
2023-10-20T12:10:25.183Z,0.75
2023-10-20T12:12:53.073Z,0.80
2023-10-20T12:15:20.781Z,0.80
2023-10-20T12:17:48.693Z,0.95
2023-10-20T12:20:16.635Z,0.88
2023-10-20T12:22:44.200Z,0.60
2023-10-20T12:25:11.987Z,0.93
2023-10-20T12:27:39.711Z,0.60
2023-10-20T12:30:10.245Z,0.60
2023-10-20T12:32:38.398Z,0.70
2023-10-20T12:35:06.367Z,0.68
2023-10-20T12:37:34.116Z,0.60
2023-10-20T12:40:01.639Z,0.63
2023-10-20T12:42:29.432Z,0.70
2023-10-20T12:44:57.195Z,0.55
2023-10-20T12:47:24.958Z,0.55
2023-10-20T12:49:55.923Z,0.60
2023-10-20T12:52:23.920Z,0.77
2023-10-20T12:54:53.605Z,0.60
2023-10-20T12:57:21.269Z,0.65
2023-10-20T12:59:48.918Z,0.57
2023-10-20T13:02:16.778Z,0.70
2023-10-20T13:04:44.625Z,0.60
2023-10-20T13:07:15.016Z,0.70
2023-10-20T13:09:42.809Z,0.60
2023-10-20T13:12:10.798Z,0.68
2023-10-20T13:14:38.494Z,0.50
2023-10-20T13:17:06.228Z,0.70
2023-10-20T13:19:35.904Z,0.60
2023-10-20T13:24:33.934Z,0.60
2023-10-20T13:27:01.699Z,0.85
2023-10-20T13:29:29.483Z,0.60
2023-10-20T13:31:56.950Z,0.70
2023-10-20T13:34:25.276Z,0.63
2023-10-20T13:36:52.829Z,0.70
2023-10-20T13:39:31.324Z,0.52
2023-10-20T13:41:59.677Z,0.70
2023-10-20T13:44:27.681Z,0.90
2023-10-20T13:46:55.374Z,0.63
2023-10-20T13:49:22.957Z,0.70
2023-10-20T13:51:50.461Z,0.70
2023-10-20T13:54:18.128Z,0.70
2023-10-20T13:56:45.702Z,1.42
2023-10-20T13:59:14.770Z,0.70
2023-10-20T14:01:42.963Z,0.60
2023-10-20T14:04:10.624Z,0.70
2023-10-20T14:06:38.594Z,0.75
2023-10-20T14:09:06.144Z,0.60
2023-10-20T14:11:33.982Z,0.70
2023-10-20T14:14:01.611Z,0.82
2023-10-20T14:16:29.358Z,0.70
2023-10-20T14:18:57.085Z,0.80
2023-10-20T14:21:24.710Z,0.80
2023-10-20T14:23:52.343Z,0.50
2023-10-20T14:26:19.898Z,0.63
2023-10-20T14:28:47.458Z,0.88
2023-10-20T14:31:15.388Z,0.82
2023-10-20T14:33:43.020Z,0.68
2023-10-20T14:36:23.996Z,0.70
2023-10-20T14:41:18.904Z,0.50
2023-10-20T14:43:46.398Z,0.60
2023-10-20T14:46:14.400Z,0.70
2023-10-20T14:48:42.505Z,0.60
2023-10-20T14:51:11.881Z,0.50
2023-10-20T14:53:39.744Z,0.50
2023-10-20T14:56:08.073Z,0.80
2023-10-20T14:58:35.692Z,0.73
2023-10-20T15:01:03.250Z,0.80
2023-10-20T15:03:31.542Z,0.55
2023-10-20T15:06:02.647Z,0.73
2023-10-20T15:08:31.099Z,1.20
2023-10-20T15:10:59.179Z,1.20
2023-10-20T15:13:26.947Z,0.80
2023-10-20T15:16:02.488Z,0.80
2023-10-20T15:18:33.591Z,0.95
2023-10-20T15:21:05.140Z,0.55
2023-10-20T15:23:32.952Z,1.10
2023-10-20T15:26:03.754Z,0.75
2023-10-20T15:28:31.469Z,0.70
2023-10-20T15:30:59.003Z,0.60
2023-10-20T15:33:26.928Z,0.73
2023-10-20T15:35:54.784Z,0.70
2023-10-20T15:38:22.500Z,0.63
2023-10-20T15:40:53.320Z,0.60
2023-10-20T15:43:21.142Z,0.80
2023-10-20T15:45:48.654Z,0.77
2023-10-20T15:48:17.123Z,0.73
2023-10-20T15:50:45.922Z,0.75
2023-10-20T15:53:13.769Z,0.70
2023-10-20T15:55:42.672Z,0.63
2023-10-20T15:58:10.712Z,1.13
2023-10-20T16:00:38.602Z,0.95
2023-10-20T16:03:06.681Z,0.90
2023-10-20T16:05:34.402Z,0.75
2023-10-20T16:08:01.897Z,1.00
2023-10-20T16:10:29.394Z,1.00
2023-10-20T16:12:57.087Z,1.00
2023-10-20T16:15:24.648Z,0.98
2023-10-20T16:17:54.048Z,0.85
2023-10-20T16:20:21.810Z,1.20
2023-10-20T16:22:49.515Z,1.10
2023-10-20T16:25:17.457Z,1.13
2023-10-20T16:27:45.211Z,1.20
2023-10-20T16:30:13.269Z,1.38
2023-10-20T16:32:42.234Z,1.30
2023-10-20T16:35:10.580Z,1.00
2023-10-20T16:37:38.290Z,1.30
2023-10-20T16:40:07.408Z,1.70
2023-10-20T16:42:35.289Z,1.45
2023-10-20T16:45:08.113Z,1.77
2023-10-20T16:47:35.991Z,2.10
2023-10-20T16:50:04.883Z,2.88
2023-10-20T16:52:32.782Z,3.25
2023-10-20T16:55:00.415Z,3.45
2023-10-20T16:57:27.958Z,3.25
2023-10-20T16:59:55.649Z,2.70
2023-10-20T17:02:23.215Z,3.22
2023-10-20T17:04:51.149Z,2.55
2023-10-20T17:07:20.016Z,2.25
2023-10-20T17:09:47.666Z,2.30
2023-10-20T17:12:15.371Z,2.30
2023-10-20T17:14:43.469Z,1.98
2023-10-20T17:17:11.037Z,2.38
2023-10-20T17:19:38.962Z,1.88
2023-10-20T17:22:08.459Z,2.40
2023-10-20T17:24:36.046Z,2.38
2023-10-20T17:27:07.863Z,2.28
2023-10-20T17:29:35.805Z,2.50
2023-10-20T17:32:04.459Z,2.70
2023-10-20T17:34:32.152Z,3.03
2023-10-20T17:36:59.870Z,3.50
2023-10-20T17:39:27.559Z,4.18
2023-10-20T17:41:55.429Z,5.75
2023-10-20T17:44:23.184Z,4.53
2023-10-20T17:46:51.304Z,5.72
2023-10-20T17:49:19.558Z,4.78
2023-10-20T17:51:47.796Z,5.07
2023-10-20T17:54:15.392Z,5.43
2023-10-20T17:56:44.872Z,6.03
2023-10-20T17:59:12.516Z,5.18
2023-10-20T18:01:40.062Z,4.47
2023-10-20T18:04:07.850Z,4.72
2023-10-20T18:06:35.759Z,4.32
2023-10-20T18:09:08.371Z,4.43
2023-10-20T18:11:36.278Z,4.63
2023-10-20T18:14:04.062Z,4.40
2023-10-20T18:16:33.407Z,4.40
2023-10-20T18:19:01.034Z,3.78
2023-10-20T18:21:30.954Z,3.60
2023-10-20T18:23:59.986Z,4.10
2023-10-20T18:26:27.802Z,3.53
2023-10-20T18:28:55.673Z,4.05
2023-10-20T18:31:23.330Z,4.70
2023-10-20T18:33:52.459Z,3.90
2023-10-20T18:36:20.258Z,4.57
2023-10-20T18:38:49.065Z,3.72
2023-10-20T18:41:17.819Z,4.03
2023-10-20T18:43:46.016Z,4.63
2023-10-20T18:46:13.946Z,4.63
2023-10-20T18:48:42.219Z,4.43
2023-10-20T18:51:12.536Z,4.32
2023-10-20T18:53:42.074Z,3.45
2023-10-20T18:56:10.367Z,2.97
2023-10-20T18:58:38.202Z,4.07
2023-10-20T19:01:06.075Z,3.38
2023-10-20T19:03:35.123Z,4.32
2023-10-20T19:06:09.813Z,4.25
2023-10-20T19:08:38.789Z,3.08
2023-10-20T19:11:11.564Z,3.35
2023-10-20T19:13:39.649Z,3.65
2023-10-20T19:16:07.323Z,3.65
2023-10-20T19:18:35.295Z,3.72
2023-10-20T19:21:04.353Z,3.88
2023-10-20T19:23:32.198Z,3.95
2023-10-20T19:26:01.577Z,3.50
2023-10-20T19:28:30.722Z,3.28
2023-10-20T19:31:01.950Z,3.80
2023-10-20T19:33:32.749Z,4.90
2023-10-20T19:36:06.147Z,3.92
2023-10-20T19:38:34.018Z,3.80
2023-10-20T19:41:01.585Z,3.55
2023-10-20T19:43:29.158Z,3.22
2023-10-20T19:45:57.319Z,3.78
2023-10-20T19:48:25.204Z,3.70
2023-10-20T19:50:52.816Z,3.60
2023-10-20T19:53:20.792Z,4.53
2023-10-20T19:55:48.537Z,3.70
2023-10-20T19:58:16.076Z,3.97
2023-10-20T20:00:43.843Z,4.13
2023-10-20T20:03:12.021Z,4.50
2023-10-20T20:05:39.842Z,4.88
2023-10-20T20:08:07.467Z,5.53
2023-10-20T20:10:35.043Z,4.40
2023-10-20T20:13:02.636Z,4.90
2023-10-20T20:15:30.262Z,4.10
2023-10-20T20:17:59.020Z,4.78
2023-10-20T20:20:27.318Z,4.72
2023-10-20T20:22:54.856Z,5.88
2023-10-20T20:25:22.496Z,5.28
2023-10-20T20:27:49.992Z,4.40
2023-10-20T20:30:17.556Z,5.00
2023-10-20T20:32:45.629Z,4.38
2023-10-20T20:35:13.470Z,4.72
2023-10-20T20:37:41.233Z,4.53
2023-10-20T20:40:09.234Z,5.15
2023-10-20T20:42:37.053Z,5.43
2023-10-20T20:45:05.120Z,5.45
2023-10-20T20:47:32.952Z,4.07
2023-10-20T20:50:02.145Z,4.50
2023-10-20T20:52:30.065Z,4.80
2023-10-20T20:54:57.891Z,4.75
2023-10-20T20:57:26.521Z,4.70
2023-10-20T20:59:54.166Z,5.78
2023-10-20T21:02:21.734Z,5.13
2023-10-20T21:04:49.465Z,6.20
2023-10-20T21:07:17.047Z,5.35
2023-10-20T21:09:44.784Z,6.32
2023-10-20T21:12:12.435Z,6.18
2023-10-20T21:14:40.061Z,5.43
2023-10-20T21:17:08.886Z,5.45
2023-10-20T21:19:36.572Z,4.50
2023-10-20T21:22:04.344Z,4.82
2023-10-20T21:24:31.825Z,5.88
2023-10-20T21:26:59.346Z,4.57
2023-10-20T21:29:27.107Z,4.40
2023-10-20T21:31:55.021Z,4.50
2023-10-20T21:34:22.611Z,4.40
2023-10-20T21:36:50.251Z,5.18
2023-10-20T21:39:17.697Z,5.13
2023-10-20T21:41:45.264Z,4.85
2023-10-20T21:44:12.952Z,4.40
2023-10-20T21:46:41.139Z,5.30
2023-10-20T21:49:09.793Z,5.55
2023-10-20T21:51:37.490Z,4.90
2023-10-20T21:54:08.065Z,4.95
2023-10-20T21:56:36.122Z,4.43
2023-10-20T21:59:03.909Z,4.25
2023-10-20T22:01:31.503Z,4.85
2023-10-20T22:03:59.318Z,4.57
2023-10-20T22:06:26.909Z,5.00
2023-10-20T22:08:54.597Z,6.28
2023-10-20T22:11:22.343Z,4.55
2023-10-20T22:13:49.826Z,4.57
2023-10-20T22:16:18.106Z,4.45
2023-10-20T22:18:49.840Z,5.40
2023-10-20T22:21:17.693Z,5.35
2023-10-20T22:23:45.403Z,4.53
2023-10-20T22:26:13.014Z,6.88
2023-10-20T22:28:40.727Z,5.35
2023-10-20T22:31:10.314Z,5.00
2023-10-20T22:33:38.376Z,4.50
2023-10-20T22:36:06.385Z,5.00
2023-10-20T22:38:33.938Z,5.30
2023-10-20T22:41:01.564Z,6.00
2023-10-20T22:43:29.206Z,4.93
2023-10-20T22:46:00.221Z,4.72
2023-10-20T22:50:55.484Z,6.10
2023-10-20T22:53:23.236Z,5.65
2023-10-20T22:55:50.884Z,6.68
2023-10-20T22:58:18.478Z,6.80
2023-10-20T23:00:46.175Z,6.60
2023-10-20T23:03:13.907Z,6.70
2023-10-20T23:05:41.657Z,6.03
2023-10-20T23:08:10.990Z,6.20
2023-10-20T23:10:38.750Z,5.47
2023-10-20T23:13:06.460Z,6.15
2023-10-20T23:15:41.944Z,6.65
2023-10-20T23:18:09.938Z,5.18
2023-10-20T23:20:37.809Z,5.15
2023-10-20T23:23:06.182Z,6.25
2023-10-20T23:25:37.565Z,5.47
2023-10-20T23:28:05.356Z,4.63
2023-10-20T23:30:32.875Z,5.28
2023-10-20T23:33:00.604Z,5.93
2023-10-20T23:35:28.283Z,5.10
2023-10-20T23:37:55.873Z,4.95
2023-10-20T23:40:23.771Z,6.03
2023-10-20T23:42:51.748Z,5.75
2023-10-20T23:45:19.299Z,4.97
2023-10-20T23:47:46.834Z,4.50
2023-10-20T23:50:14.424Z,5.13
2023-10-20T23:52:41.923Z,4.78
2023-10-20T23:55:09.748Z,5.03
2023-10-20T23:57:37.499Z,5.38
